sensor_id;sensor_type;location;lat;lon;timestamp;P1;durP1;ratioP1;P2;durP2;ratioP2
30378;SDS011;17168;49.164;9.060;2022-10-17T00:01:26;5.65;;;2.60;;
30378;SDS011;17168;49.164;9.060;2022-10-17T00:03:59;2.90;;;2.50;;
30378;SDS011;17168;49.164;9.060;2022-10-17T00:06:31;3.30;;;3.00;;
30378;SDS011;17168;49.164;9.060;2022-10-17T00:09:03;6.70;;;2.65;;
30378;SDS011;17168;49.164;9.060;2022-10-17T00:11:35;10.60;;;2.47;;
30378;SDS011;17168;49.164;9.060;2022-10-17T00:14:07;8.30;;;2.92;;
30378;SDS011;17168;49.164;9.060;2022-10-17T00:16:39;5.88;;;2.60;;
30378;SDS011;17168;49.164;9.060;2022-10-17T00:19:12;7.30;;;3.17;;
30378;SDS011;17168;49.164;9.060;2022-10-17T00:21:44;6.57;;;2.65;;
30378;SDS011;17168;49.164;9.060;2022-10-17T00:24:15;4.65;;;2.78;;
30378;SDS011;17168;49.164;9.060;2022-10-17T00:26:47;5.28;;;2.10;;
30378;SDS011;17168;49.164;9.060;2022-10-17T00:29:19;5.93;;;2.40;;
30378;SDS011;17168;49.164;9.060;2022-10-17T00:31:53;9.80;;;2.40;;
30378;SDS011;17168;49.164;9.060;2022-10-17T00:34:31;4.28;;;2.90;;
30378;SDS011;17168;49.164;9.060;2022-10-17T00:37:03;10.93;;;2.92;;
30378;SDS011;17168;49.164;9.060;2022-10-17T00:39:34;9.18;;;2.83;;
30378;SDS011;17168;49.164;9.060;2022-10-17T00:42:08;8.90;;;2.88;;
30378;SDS011;17168;49.164;9.060;2022-10-17T00:44:59;7.63;;;3.42;;
30378;SDS011;17168;49.164;9.060;2022-10-17T00:47:35;7.80;;;2.70;;
30378;SDS011;17168;49.164;9.060;2022-10-17T00:50:08;8.07;;;2.70;;
30378;SDS011;17168;49.164;9.060;2022-10-17T00:52:41;4.68;;;3.03;;
30378;SDS011;17168;49.164;9.060;2022-10-17T00:55:15;9.10;;;3.35;;
30378;SDS011;17168;49.164;9.060;2022-10-17T00:57:50;9.60;;;2.78;;
30378;SDS011;17168;49.164;9.060;2022-10-17T01:00:23;6.18;;;2.92;;
30378;SDS011;17168;49.164;9.060;2022-10-17T01:02:55;5.25;;;2.65;;
30378;SDS011;17168;49.164;9.060;2022-10-17T01:05:28;7.93;;;3.53;;
30378;SDS011;17168;49.164;9.060;2022-10-17T01:10:34;6.47;;;3.47;;
30378;SDS011;17168;49.164;9.060;2022-10-17T01:13:17;12.05;;;4.13;;
30378;SDS011;17168;49.164;9.060;2022-10-17T01:15:56;9.85;;;3.90;;
30378;SDS011;17168;49.164;9.060;2022-10-17T01:18:38;12.43;;;4.80;;
30378;SDS011;17168;49.164;9.060;2022-10-17T01:21:24;7.93;;;4.55;;
30378;SDS011;17168;49.164;9.060;2022-10-17T01:30:25;10.02;;;4.72;;
30378;SDS011;17168;49.164;9.060;2022-10-17T01:33:24;8.18;;;4.63;;
30378;SDS011;17168;49.164;9.060;2022-10-17T01:36:08;10.38;;;4.80;;
30378;SDS011;17168;49.164;9.060;2022-10-17T01:38:43;14.70;;;5.35;;
30378;SDS011;17168;49.164;9.060;2022-10-17T01:41:21;11.45;;;5.65;;
30378;SDS011;17168;49.164;9.060;2022-10-17T01:43:58;14.18;;;5.38;;
30378;SDS011;17168;49.164;9.060;2022-10-17T01:46:35;12.52;;;4.90;;
30378;SDS011;17168;49.164;9.060;2022-10-17T01:51:43;15.43;;;3.90;;
30378;SDS011;17168;49.164;9.060;2022-10-17T01:54:20;11.45;;;4.43;;
30378;SDS011;17168;49.164;9.060;2022-10-17T01:56:56;10.02;;;4.65;;
30378;SDS011;17168;49.164;9.060;2022-10-17T01:59:30;9.70;;;4.32;;
30378;SDS011;17168;49.164;9.060;2022-10-17T02:02:08;8.15;;;4.13;;
30378;SDS011;17168;49.164;9.060;2022-10-17T02:04:46;6.75;;;4.18;;
30378;SDS011;17168;49.164;9.060;2022-10-17T02:07:20;7.07;;;4.60;;
30378;SDS011;17168;49.164;9.060;2022-10-17T02:09:52;10.25;;;4.15;;
30378;SDS011;17168;49.164;9.060;2022-10-17T02:12:26;11.52;;;4.82;;
30378;SDS011;17168;49.164;9.060;2022-10-17T02:15:11;11.82;;;4.25;;
30378;SDS011;17168;49.164;9.060;2022-10-17T02:18:01;13.98;;;4.13;;
30378;SDS011;17168;49.164;9.060;2022-10-17T02:20:48;11.45;;;4.05;;
30378;SDS011;17168;49.164;9.060;2022-10-17T02:23:26;10.65;;;4.43;;
30378;SDS011;17168;49.164;9.060;2022-10-17T02:26:08;9.63;;;4.80;;
30378;SDS011;17168;49.164;9.060;2022-10-17T02:28:43;10.38;;;4.25;;
30378;SDS011;17168;49.164;9.060;2022-10-17T02:31:21;10.82;;;4.95;;
30378;SDS011;17168;49.164;9.060;2022-10-17T02:33:57;8.57;;;4.07;;
30378;SDS011;17168;49.164;9.060;2022-10-17T02:36:33;11.20;;;4.55;;
30378;SDS011;17168;49.164;9.060;2022-10-17T02:39:09;10.77;;;4.60;;
30378;SDS011;17168;49.164;9.060;2022-10-17T02:44:14;10.23;;;5.38;;
30378;SDS011;17168;49.164;9.060;2022-10-17T02:46:47;13.50;;;5.60;;
30378;SDS011;17168;49.164;9.060;2022-10-17T02:49:26;13.52;;;5.55;;
30378;SDS011;17168;49.164;9.060;2022-10-17T02:52:02;13.50;;;5.63;;
30378;SDS011;17168;49.164;9.060;2022-10-17T02:54:38;11.13;;;6.10;;
30378;SDS011;17168;49.164;9.060;2022-10-17T02:57:15;17.38;;;5.90;;
30378;SDS011;17168;49.164;9.060;2022-10-17T02:59:52;15.57;;;5.88;;
30378;SDS011;17168;49.164;9.060;2022-10-17T03:02:25;19.08;;;5.72;;
30378;SDS011;17168;49.164;9.060;2022-10-17T03:04:58;10.30;;;5.32;;
30378;SDS011;17168;49.164;9.060;2022-10-17T03:07:31;9.60;;;6.03;;
30378;SDS011;17168;49.164;9.060;2022-10-17T03:10:03;12.07;;;5.45;;
30378;SDS011;17168;49.164;9.060;2022-10-17T03:12:36;9.07;;;5.07;;
30378;SDS011;17168;49.164;9.060;2022-10-17T03:15:08;11.13;;;4.95;;
30378;SDS011;17168;49.164;9.060;2022-10-17T03:17:41;11.80;;;4.85;;
30378;SDS011;17168;49.164;9.060;2022-10-17T03:20:13;9.07;;;5.05;;
30378;SDS011;17168;49.164;9.060;2022-10-17T03:22:46;7.43;;;4.78;;
30378;SDS011;17168;49.164;9.060;2022-10-17T03:25:18;10.25;;;5.13;;
30378;SDS011;17168;49.164;9.060;2022-10-17T03:27:56;10.43;;;5.38;;
30378;SDS011;17168;49.164;9.060;2022-10-17T03:30:30;14.88;;;5.35;;
30378;SDS011;17168;49.164;9.060;2022-10-17T03:33:11;13.00;;;5.22;;
30378;SDS011;17168;49.164;9.060;2022-10-17T03:35:43;8.38;;;5.18;;
30378;SDS011;17168;49.164;9.060;2022-10-17T03:38:17;9.02;;;4.85;;
30378;SDS011;17168;49.164;9.060;2022-10-17T03:40:53;15.63;;;5.78;;
30378;SDS011;17168;49.164;9.060;2022-10-17T03:43:25;9.45;;;5.35;;
30378;SDS011;17168;49.164;9.060;2022-10-17T03:45:57;10.27;;;4.93;;
30378;SDS011;17168;49.164;9.060;2022-10-17T03:48:30;9.85;;;5.50;;
30378;SDS011;17168;49.164;9.060;2022-10-17T03:51:03;9.15;;;5.35;;
30378;SDS011;17168;49.164;9.060;2022-10-17T03:53:37;12.80;;;5.70;;
30378;SDS011;17168;49.164;9.060;2022-10-17T03:56:10;12.82;;;6.15;;
30378;SDS011;17168;49.164;9.060;2022-10-17T03:58:43;11.52;;;5.15;;
30378;SDS011;17168;49.164;9.060;2022-10-17T04:01:16;12.35;;;5.45;;
30378;SDS011;17168;49.164;9.060;2022-10-17T04:03:49;10.63;;;5.45;;
30378;SDS011;17168;49.164;9.060;2022-10-17T04:06:22;8.18;;;5.05;;
30378;SDS011;17168;49.164;9.060;2022-10-17T04:08:55;11.88;;;5.68;;
30378;SDS011;17168;49.164;9.060;2022-10-17T04:11:28;11.35;;;5.00;;
30378;SDS011;17168;49.164;9.060;2022-10-17T04:14:00;8.02;;;5.50;;
30378;SDS011;17168;49.164;9.060;2022-10-17T04:16:32;10.50;;;5.50;;
30378;SDS011;17168;49.164;9.060;2022-10-17T04:19:06;10.15;;;5.15;;
30378;SDS011;17168;49.164;9.060;2022-10-17T04:21:47;12.88;;;5.18;;
30378;SDS011;17168;49.164;9.060;2022-10-17T04:24:24;11.68;;;5.13;;
30378;SDS011;17168;49.164;9.060;2022-10-17T04:26:59;10.25;;;5.45;;
30378;SDS011;17168;49.164;9.060;2022-10-17T04:29:30;22.10;;;6.60;;
30378;SDS011;17168;49.164;9.060;2022-10-17T04:32:03;11.63;;;6.50;;
30378;SDS011;17168;49.164;9.060;2022-10-17T04:34:35;9.10;;;5.28;;
30378;SDS011;17168;49.164;9.060;2022-10-17T04:37:06;8.95;;;4.95;;
30378;SDS011;17168;49.164;9.060;2022-10-17T04:39:43;11.10;;;4.65;;
30378;SDS011;17168;49.164;9.060;2022-10-17T04:42:22;7.32;;;4.65;;
30378;SDS011;17168;49.164;9.060;2022-10-17T04:44:58;8.65;;;4.60;;
30378;SDS011;17168;49.164;9.060;2022-10-17T04:47:32;6.82;;;4.22;;
30378;SDS011;17168;49.164;9.060;2022-10-17T04:50:07;6.78;;;3.80;;
30378;SDS011;17168;49.164;9.060;2022-10-17T04:52:39;11.48;;;3.78;;
30378;SDS011;17168;49.164;9.060;2022-10-17T04:55:13;7.10;;;3.97;;
30378;SDS011;17168;49.164;9.060;2022-10-17T04:57:49;14.75;;;4.03;;
30378;SDS011;17168;49.164;9.060;2022-10-17T05:00:21;6.25;;;3.40;;
30378;SDS011;17168;49.164;9.060;2022-10-17T05:02:53;6.93;;;3.75;;
30378;SDS011;17168;49.164;9.060;2022-10-17T05:05:31;4.65;;;3.00;;
30378;SDS011;17168;49.164;9.060;2022-10-17T05:08:03;7.75;;;3.42;;
30378;SDS011;17168;49.164;9.060;2022-10-17T05:10:37;8.82;;;3.42;;
30378;SDS011;17168;49.164;9.060;2022-10-17T05:13:13;6.85;;;3.38;;
30378;SDS011;17168;49.164;9.060;2022-10-17T05:15:45;10.98;;;3.92;;
30378;SDS011;17168;49.164;9.060;2022-10-17T05:18:21;7.05;;;4.00;;
30378;SDS011;17168;49.164;9.060;2022-10-17T05:20:53;8.18;;;3.83;;
30378;SDS011;17168;49.164;9.060;2022-10-17T05:23:24;8.02;;;3.67;;
30378;SDS011;17168;49.164;9.060;2022-10-17T05:26:03;15.60;;;4.28;;
30378;SDS011;17168;49.164;9.060;2022-10-17T05:28:35;6.03;;;3.70;;
30378;SDS011;17168;49.164;9.060;2022-10-17T05:31:07;5.80;;;3.67;;
30378;SDS011;17168;49.164;9.060;2022-10-17T05:33:40;6.05;;;3.67;;
30378;SDS011;17168;49.164;9.060;2022-10-17T05:36:12;6.38;;;3.72;;
30378;SDS011;17168;49.164;9.060;2022-10-17T05:38:47;10.60;;;4.10;;
30378;SDS011;17168;49.164;9.060;2022-10-17T05:41:21;11.50;;;3.92;;
30378;SDS011;17168;49.164;9.060;2022-10-17T05:43:53;8.80;;;3.65;;
30378;SDS011;17168;49.164;9.060;2022-10-17T05:46:25;7.82;;;3.60;;
30378;SDS011;17168;49.164;9.060;2022-10-17T05:48:57;12.05;;;3.72;;
30378;SDS011;17168;49.164;9.060;2022-10-17T05:51:28;5.05;;;3.80;;
30378;SDS011;17168;49.164;9.060;2022-10-17T05:54:00;7.68;;;3.90;;
30378;SDS011;17168;49.164;9.060;2022-10-17T05:56:34;5.95;;;3.40;;
30378;SDS011;17168;49.164;9.060;2022-10-17T05:59:06;6.97;;;3.20;;
30378;SDS011;17168;49.164;9.060;2022-10-17T06:01:38;7.55;;;3.45;;
30378;SDS011;17168;49.164;9.060;2022-10-17T06:04:10;5.18;;;3.53;;
30378;SDS011;17168;49.164;9.060;2022-10-17T06:06:42;8.82;;;3.65;;
30378;SDS011;17168;49.164;9.060;2022-10-17T06:09:14;9.63;;;4.32;;
30378;SDS011;17168;49.164;9.060;2022-10-17T06:11:47;4.30;;;3.33;;
30378;SDS011;17168;49.164;9.060;2022-10-17T06:14:19;7.43;;;3.50;;
30378;SDS011;17168;49.164;9.060;2022-10-17T06:16:51;4.82;;;3.42;;
30378;SDS011;17168;49.164;9.060;2022-10-17T06:19:22;5.82;;;3.90;;
30378;SDS011;17168;49.164;9.060;2022-10-17T06:21:54;6.57;;;3.58;;
30378;SDS011;17168;49.164;9.060;2022-10-17T06:24:26;9.32;;;3.58;;
30378;SDS011;17168;49.164;9.060;2022-10-17T06:26:59;10.57;;;3.92;;
30378;SDS011;17168;49.164;9.060;2022-10-17T06:29:31;10.38;;;3.83;;
30378;SDS011;17168;49.164;9.060;2022-10-17T06:32:03;8.80;;;4.18;;
30378;SDS011;17168;49.164;9.060;2022-10-17T06:34:38;8.82;;;3.70;;
30378;SDS011;17168;49.164;9.060;2022-10-17T06:37:10;6.40;;;4.05;;
30378;SDS011;17168;49.164;9.060;2022-10-17T06:39:42;7.32;;;3.90;;
30378;SDS011;17168;49.164;9.060;2022-10-17T06:42:15;15.85;;;4.13;;
30378;SDS011;17168;49.164;9.060;2022-10-17T06:44:47;8.65;;;3.35;;
30378;SDS011;17168;49.164;9.060;2022-10-17T06:47:19;6.47;;;4.15;;
30378;SDS011;17168;49.164;9.060;2022-10-17T06:49:51;9.48;;;4.60;;
30378;SDS011;17168;49.164;9.060;2022-10-17T06:52:23;11.85;;;4.95;;
30378;SDS011;17168;49.164;9.060;2022-10-17T06:54:54;9.18;;;4.10;;
30378;SDS011;17168;49.164;9.060;2022-10-17T06:57:28;8.60;;;4.45;;
30378;SDS011;17168;49.164;9.060;2022-10-17T07:00:00;7.90;;;3.97;;
30378;SDS011;17168;49.164;9.060;2022-10-17T07:02:32;6.95;;;3.47;;
30378;SDS011;17168;49.164;9.060;2022-10-17T07:05:04;11.38;;;3.67;;
30378;SDS011;17168;49.164;9.060;2022-10-17T07:07:37;5.30;;;3.88;;
30378;SDS011;17168;49.164;9.060;2022-10-17T07:10:14;4.55;;;3.78;;
30378;SDS011;17168;49.164;9.060;2022-10-17T07:12:47;5.00;;;3.75;;
30378;SDS011;17168;49.164;9.060;2022-10-17T07:15:19;10.75;;;4.22;;
30378;SDS011;17168;49.164;9.060;2022-10-17T07:17:51;7.10;;;3.50;;
30378;SDS011;17168;49.164;9.060;2022-10-17T07:20:23;6.40;;;3.53;;
30378;SDS011;17168;49.164;9.060;2022-10-17T07:22:55;5.05;;;4.10;;
30378;SDS011;17168;49.164;9.060;2022-10-17T07:25:27;5.35;;;4.05;;
30378;SDS011;17168;49.164;9.060;2022-10-17T07:28:00;6.68;;;3.97;;
30378;SDS011;17168;49.164;9.060;2022-10-17T07:30:32;10.77;;;4.65;;
30378;SDS011;17168;49.164;9.060;2022-10-17T07:33:04;8.57;;;4.10;;
30378;SDS011;17168;49.164;9.060;2022-10-17T07:35:36;7.40;;;5.13;;
30378;SDS011;17168;49.164;9.060;2022-10-17T07:38:11;9.07;;;4.35;;
30378;SDS011;17168;49.164;9.060;2022-10-17T07:40:42;11.15;;;5.20;;
30378;SDS011;17168;49.164;9.060;2022-10-17T07:43:15;6.93;;;4.88;;
30378;SDS011;17168;49.164;9.060;2022-10-17T07:45:47;9.05;;;5.25;;
30378;SDS011;17168;49.164;9.060;2022-10-17T07:48:20;13.98;;;5.60;;
30378;SDS011;17168;49.164;9.060;2022-10-17T07:53:24;9.40;;;5.25;;
30378;SDS011;17168;49.164;9.060;2022-10-17T07:55:56;7.05;;;5.10;;
30378;SDS011;17168;49.164;9.060;2022-10-17T07:58:29;9.48;;;4.55;;
30378;SDS011;17168;49.164;9.060;2022-10-17T08:03:34;10.20;;;4.93;;
30378;SDS011;17168;49.164;9.060;2022-10-17T08:06:05;6.78;;;5.03;;
30378;SDS011;17168;49.164;9.060;2022-10-17T08:08:37;6.45;;;3.78;;
30378;SDS011;17168;49.164;9.060;2022-10-17T08:11:10;6.50;;;4.00;;
30378;SDS011;17168;49.164;9.060;2022-10-17T08:13:44;5.53;;;3.97;;
30378;SDS011;17168;49.164;9.060;2022-10-17T08:16:16;7.32;;;4.53;;
30378;SDS011;17168;49.164;9.060;2022-10-17T08:18:48;7.63;;;4.50;;
30378;SDS011;17168;49.164;9.060;2022-10-17T08:21:20;6.25;;;4.10;;
30378;SDS011;17168;49.164;9.060;2022-10-17T08:23:52;11.38;;;4.30;;
30378;SDS011;17168;49.164;9.060;2022-10-17T08:26:24;7.30;;;4.28;;
30378;SDS011;17168;49.164;9.060;2022-10-17T08:28:57;9.05;;;4.70;;
30378;SDS011;17168;49.164;9.060;2022-10-17T08:31:29;6.05;;;4.25;;
30378;SDS011;17168;49.164;9.060;2022-10-17T08:34:01;6.20;;;4.30;;
30378;SDS011;17168;49.164;9.060;2022-10-17T08:36:33;6.32;;;3.92;;
30378;SDS011;17168;49.164;9.060;2022-10-17T08:39:05;6.85;;;3.47;;
30378;SDS011;17168;49.164;9.060;2022-10-17T08:41:41;5.47;;;3.50;;
30378;SDS011;17168;49.164;9.060;2022-10-17T08:44:27;6.30;;;3.83;;
30378;SDS011;17168;49.164;9.060;2022-10-17T08:47:08;5.10;;;3.50;;
30378;SDS011;17168;49.164;9.060;2022-10-17T08:49:43;5.95;;;3.45;;
30378;SDS011;17168;49.164;9.060;2022-10-17T08:52:21;12.70;;;4.05;;
30378;SDS011;17168;49.164;9.060;2022-10-17T08:54:59;5.83;;;3.90;;
30378;SDS011;17168;49.164;9.060;2022-10-17T08:57:31;6.90;;;4.20;;
30378;SDS011;17168;49.164;9.060;2022-10-17T09:00:06;10.73;;;3.80;;
30378;SDS011;17168;49.164;9.060;2022-10-17T09:02:49;6.75;;;4.07;;
30378;SDS011;17168;49.164;9.060;2022-10-17T09:05:40;7.35;;;3.85;;
30378;SDS011;17168;49.164;9.060;2022-10-17T09:08:21;5.60;;;3.88;;
30378;SDS011;17168;49.164;9.060;2022-10-17T09:11:03;8.60;;;3.45;;
30378;SDS011;17168;49.164;9.060;2022-10-17T09:13:47;6.32;;;3.80;;
30378;SDS011;17168;49.164;9.060;2022-10-17T09:19:35;10.93;;;6.20;;
30378;SDS011;17168;49.164;9.060;2022-10-17T09:22:09;32.22;;;17.40;;
30378;SDS011;17168;49.164;9.060;2022-10-17T09:24:45;12.68;;;7.50;;
30378;SDS011;17168;49.164;9.060;2022-10-17T09:27:22;13.32;;;6.68;;
30378;SDS011;17168;49.164;9.060;2022-10-17T09:29:59;6.93;;;3.55;;
30378;SDS011;17168;49.164;9.060;2022-10-17T09:33:09;16.92;;;6.70;;
30378;SDS011;17168;49.164;9.060;2022-10-17T09:36:04;5.05;;;3.65;;
30378;SDS011;17168;49.164;9.060;2022-10-17T09:38:41;5.15;;;2.97;;
30378;SDS011;17168;49.164;9.060;2022-10-17T09:41:16;6.40;;;2.90;;
30378;SDS011;17168;49.164;9.060;2022-10-17T09:44:13;5.90;;;3.03;;
30378;SDS011;17168;49.164;9.060;2022-10-17T09:46:53;11.70;;;2.60;;
30378;SDS011;17168;49.164;9.060;2022-10-17T09:49:34;4.32;;;2.80;;
30378;SDS011;17168;49.164;9.060;2022-10-17T09:52:10;5.78;;;2.70;;
30378;SDS011;17168;49.164;9.060;2022-10-17T09:54:45;4.20;;;2.70;;
30378;SDS011;17168;49.164;9.060;2022-10-17T09:57:21;3.72;;;2.70;;
30378;SDS011;17168;49.164;9.060;2022-10-17T09:59:56;4.20;;;2.60;;
30378;SDS011;17168;49.164;9.060;2022-10-17T10:02:30;5.93;;;2.38;;
30378;SDS011;17168;49.164;9.060;2022-10-17T10:05:13;4.38;;;2.53;;
30378;SDS011;17168;49.164;9.060;2022-10-17T10:07:59;4.40;;;2.50;;
30378;SDS011;17168;49.164;9.060;2022-10-17T10:10:32;10.93;;;2.90;;
30378;SDS011;17168;49.164;9.060;2022-10-17T10:13:05;9.35;;;2.72;;
30378;SDS011;17168;49.164;9.060;2022-10-17T10:15:47;3.65;;;2.60;;
30378;SDS011;17168;49.164;9.060;2022-10-17T10:42:30;3.15;;;2.28;;
30378;SDS011;17168;49.164;9.060;2022-10-17T10:45:13;3.88;;;2.65;;
30378;SDS011;17168;49.164;9.060;2022-10-17T10:48:12;7.13;;;2.45;;
30378;SDS011;17168;49.164;9.060;2022-10-17T10:50:51;5.07;;;2.80;;
30378;SDS011;17168;49.164;9.060;2022-10-17T10:53:29;6.00;;;2.55;;
30378;SDS011;17168;49.164;9.060;2022-10-17T10:56:07;4.95;;;2.72;;
30378;SDS011;17168;49.164;9.060;2022-10-17T10:58:50;6.72;;;2.30;;
30378;SDS011;17168;49.164;9.060;2022-10-17T11:01:27;6.68;;;2.20;;
30378;SDS011;17168;49.164;9.060;2022-10-17T11:04:10;3.15;;;2.35;;
30378;SDS011;17168;49.164;9.060;2022-10-17T11:06:51;5.90;;;2.60;;
30378;SDS011;17168;49.164;9.060;2022-10-17T11:09:27;5.57;;;2.42;;
30378;SDS011;17168;49.164;9.060;2022-10-17T11:12:05;4.38;;;2.65;;
30378;SDS011;17168;49.164;9.060;2022-10-17T11:14:45;4.97;;;2.72;;
30378;SDS011;17168;49.164;9.060;2022-10-17T11:17:22;6.53;;;2.33;;
30378;SDS011;17168;49.164;9.060;2022-10-17T11:20:05;9.45;;;2.70;;
30378;SDS011;17168;49.164;9.060;2022-10-17T11:25:28;3.65;;;2.40;;
30378;SDS011;17168;49.164;9.060;2022-10-17T11:28:03;6.88;;;2.78;;
30378;SDS011;17168;49.164;9.060;2022-10-17T11:30:45;6.97;;;2.60;;
30378;SDS011;17168;49.164;9.060;2022-10-17T11:33:23;4.10;;;2.50;;
30378;SDS011;17168;49.164;9.060;2022-10-17T11:36:01;4.82;;;2.45;;
30378;SDS011;17168;49.164;9.060;2022-10-17T11:38:39;8.77;;;2.30;;
30378;SDS011;17168;49.164;9.060;2022-10-17T11:41:17;5.18;;;2.22;;
30378;SDS011;17168;49.164;9.060;2022-10-17T11:43:53;6.00;;;2.40;;
30378;SDS011;17168;49.164;9.060;2022-10-17T11:46:29;8.95;;;2.35;;
30378;SDS011;17168;49.164;9.060;2022-10-17T11:49:05;7.70;;;2.50;;
30378;SDS011;17168;49.164;9.060;2022-10-17T11:51:45;7.28;;;2.38;;
30378;SDS011;17168;49.164;9.060;2022-10-17T11:54:35;8.98;;;2.97;;
30378;SDS011;17168;49.164;9.060;2022-10-17T11:57:16;5.22;;;2.25;;
30378;SDS011;17168;49.164;9.060;2022-10-17T11:59:59;7.18;;;2.75;;
30378;SDS011;17168;49.164;9.060;2022-10-17T12:02:44;10.63;;;2.60;;
30378;SDS011;17168;49.164;9.060;2022-10-17T12:05:22;8.90;;;2.33;;
30378;SDS011;17168;49.164;9.060;2022-10-17T12:08:02;6.88;;;2.50;;
30378;SDS011;17168;49.164;9.060;2022-10-17T12:10:43;6.82;;;2.33;;
30378;SDS011;17168;49.164;9.060;2022-10-17T12:19:32;7.78;;;2.42;;
30378;SDS011;17168;49.164;9.060;2022-10-17T12:22:14;9.43;;;2.55;;
30378;SDS011;17168;49.164;9.060;2022-10-17T12:24:54;8.30;;;2.40;;
30378;SDS011;17168;49.164;9.060;2022-10-17T12:27:31;6.60;;;2.05;;
30378;SDS011;17168;49.164;9.060;2022-10-17T12:30:22;5.28;;;1.95;;
30378;SDS011;17168;49.164;9.060;2022-10-17T12:58:25;4.80;;;1.92;;
30378;SDS011;17168;49.164;9.060;2022-10-17T13:00:57;9.05;;;2.22;;
30378;SDS011;17168;49.164;9.060;2022-10-17T13:03:49;3.43;;;1.70;;
30378;SDS011;17168;49.164;9.060;2022-10-17T13:06:24;6.55;;;1.88;;
30378;SDS011;17168;49.164;9.060;2022-10-17T13:09:00;4.68;;;1.80;;
30378;SDS011;17168;49.164;9.060;2022-10-17T13:11:36;4.40;;;1.73;;
30378;SDS011;17168;49.164;9.060;2022-10-17T13:14:11;8.07;;;1.88;;
30378;SDS011;17168;49.164;9.060;2022-10-17T13:16:50;7.03;;;1.70;;
30378;SDS011;17168;49.164;9.060;2022-10-17T13:19:25;6.35;;;1.65;;
30378;SDS011;17168;49.164;9.060;2022-10-17T13:22:00;9.02;;;2.15;;
30378;SDS011;17168;49.164;9.060;2022-10-17T13:24:37;2.72;;;1.73;;
30378;SDS011;17168;49.164;9.060;2022-10-17T13:27:21;5.00;;;1.80;;
30378;SDS011;17168;49.164;9.060;2022-10-17T13:29:57;3.22;;;1.70;;
30378;SDS011;17168;49.164;9.060;2022-10-17T13:32:34;8.18;;;1.83;;
30378;SDS011;17168;49.164;9.060;2022-10-17T13:35:08;8.95;;;1.75;;
30378;SDS011;17168;49.164;9.060;2022-10-17T13:37:42;3.35;;;1.40;;
30378;SDS011;17168;49.164;9.060;2022-10-17T13:40:22;4.93;;;1.50;;
30378;SDS011;17168;49.164;9.060;2022-10-17T13:43:16;4.32;;;1.73;;
30378;SDS011;17168;49.164;9.060;2022-10-17T13:45:52;3.15;;;1.52;;
30378;SDS011;17168;49.164;9.060;2022-10-17T13:48:39;4.25;;;1.92;;
30378;SDS011;17168;49.164;9.060;2022-10-17T13:51:11;4.63;;;1.80;;
30378;SDS011;17168;49.164;9.060;2022-10-17T13:53:43;10.30;;;1.95;;
30378;SDS011;17168;49.164;9.060;2022-10-17T13:56:16;5.20;;;1.80;;
30378;SDS011;17168;49.164;9.060;2022-10-17T13:59:00;4.75;;;1.90;;
30378;SDS011;17168;49.164;9.060;2022-10-17T14:01:39;4.13;;;2.03;;
30378;SDS011;17168;49.164;9.060;2022-10-17T14:04:11;5.55;;;1.77;;
30378;SDS011;17168;49.164;9.060;2022-10-17T14:06:50;6.22;;;2.03;;
30378;SDS011;17168;49.164;9.060;2022-10-17T14:09:23;8.20;;;1.97;;
30378;SDS011;17168;49.164;9.060;2022-10-17T14:11:58;3.75;;;1.80;;
30378;SDS011;17168;49.164;9.060;2022-10-17T14:14:31;6.03;;;1.90;;
30378;SDS011;17168;49.164;9.060;2022-10-17T14:17:26;5.23;;;1.70;;
30378;SDS011;17168;49.164;9.060;2022-10-17T14:22:47;3.20;;;1.90;;
30378;SDS011;17168;49.164;9.060;2022-10-17T14:25:39;5.75;;;1.90;;
30378;SDS011;17168;49.164;9.060;2022-10-17T14:28:12;4.90;;;1.80;;
30378;SDS011;17168;49.164;9.060;2022-10-17T14:30:46;8.25;;;1.80;;
30378;SDS011;17168;49.164;9.060;2022-10-17T14:33:29;7.72;;;2.15;;
30378;SDS011;17168;49.164;9.060;2022-10-17T14:36:03;7.43;;;2.20;;
30378;SDS011;17168;49.164;9.060;2022-10-17T14:38:35;5.18;;;1.85;;
30378;SDS011;17168;49.164;9.060;2022-10-17T14:41:08;7.85;;;1.92;;
30378;SDS011;17168;49.164;9.060;2022-10-17T14:44:05;6.75;;;1.85;;
30378;SDS011;17168;49.164;9.060;2022-10-17T14:46:42;11.02;;;2.28;;
30378;SDS011;17168;49.164;9.060;2022-10-17T14:49:24;5.25;;;1.88;;
30378;SDS011;17168;49.164;9.060;2022-10-17T14:52:08;5.75;;;2.22;;
30378;SDS011;17168;49.164;9.060;2022-10-17T14:54:57;4.68;;;1.88;;
30378;SDS011;17168;49.164;9.060;2022-10-17T14:57:39;8.35;;;2.47;;
30378;SDS011;17168;49.164;9.060;2022-10-17T15:00:13;8.02;;;2.08;;
30378;SDS011;17168;49.164;9.060;2022-10-17T15:05:20;5.55;;;2.00;;
30378;SDS011;17168;49.164;9.060;2022-10-17T15:07:53;5.43;;;2.00;;
30378;SDS011;17168;49.164;9.060;2022-10-17T15:10:30;3.50;;;2.13;;
30378;SDS011;17168;49.164;9.060;2022-10-17T15:13:04;6.97;;;2.28;;
30378;SDS011;17168;49.164;9.060;2022-10-17T15:15:56;4.90;;;2.00;;
30378;SDS011;17168;49.164;9.060;2022-10-17T15:18:27;6.28;;;2.50;;
30378;SDS011;17168;49.164;9.060;2022-10-17T15:21:00;7.70;;;2.00;;
30378;SDS011;17168;49.164;9.060;2022-10-17T15:23:47;5.20;;;2.45;;
30378;SDS011;17168;49.164;9.060;2022-10-17T15:26:20;3.95;;;1.92;;
30378;SDS011;17168;49.164;9.060;2022-10-17T15:28:54;5.32;;;2.05;;
30378;SDS011;17168;49.164;9.060;2022-10-17T15:31:26;5.22;;;2.33;;
30378;SDS011;17168;49.164;9.060;2022-10-17T15:34:01;6.30;;;2.20;;
30378;SDS011;17168;49.164;9.060;2022-10-17T15:36:34;4.13;;;2.10;;
30378;SDS011;17168;49.164;9.060;2022-10-17T15:39:09;7.03;;;2.00;;
30378;SDS011;17168;49.164;9.060;2022-10-17T15:41:41;7.55;;;2.00;;
30378;SDS011;17168;49.164;9.060;2022-10-17T15:44:14;3.75;;;2.10;;
30378;SDS011;17168;49.164;9.060;2022-10-17T15:46:46;3.67;;;2.05;;
30378;SDS011;17168;49.164;9.060;2022-10-17T15:49:17;4.30;;;2.10;;
30378;SDS011;17168;49.164;9.060;2022-10-17T15:51:51;5.37;;;2.10;;
30378;SDS011;17168;49.164;9.060;2022-10-17T15:54:25;5.05;;;2.13;;
30378;SDS011;17168;49.164;9.060;2022-10-17T15:56:57;5.50;;;1.90;;
30378;SDS011;17168;49.164;9.060;2022-10-17T15:59:31;5.65;;;2.10;;
30378;SDS011;17168;49.164;9.060;2022-10-17T16:02:07;5.63;;;2.30;;
30378;SDS011;17168;49.164;9.060;2022-10-17T16:04:42;4.82;;;2.20;;
30378;SDS011;17168;49.164;9.060;2022-10-17T16:07:16;5.68;;;1.98;;
30378;SDS011;17168;49.164;9.060;2022-10-17T16:09:49;4.57;;;2.30;;
30378;SDS011;17168;49.164;9.060;2022-10-17T16:12:22;5.60;;;2.00;;
30378;SDS011;17168;49.164;9.060;2022-10-17T16:14:58;4.50;;;2.10;;
30378;SDS011;17168;49.164;9.060;2022-10-17T16:17:30;4.10;;;2.10;;
30378;SDS011;17168;49.164;9.060;2022-10-17T16:20:02;5.18;;;2.40;;
30378;SDS011;17168;49.164;9.060;2022-10-17T16:22:36;3.75;;;2.03;;
30378;SDS011;17168;49.164;9.060;2022-10-17T16:25:15;4.65;;;2.20;;
30378;SDS011;17168;49.164;9.060;2022-10-17T16:27:50;3.45;;;2.00;;
30378;SDS011;17168;49.164;9.060;2022-10-17T16:30:24;7.70;;;2.40;;
30378;SDS011;17168;49.164;9.060;2022-10-17T16:32:57;6.55;;;2.10;;
30378;SDS011;17168;49.164;9.060;2022-10-17T16:35:29;4.45;;;2.35;;
30378;SDS011;17168;49.164;9.060;2022-10-17T16:38:09;7.97;;;2.38;;
30378;SDS011;17168;49.164;9.060;2022-10-17T16:43:12;6.03;;;2.38;;
30378;SDS011;17168;49.164;9.060;2022-10-17T16:45:44;4.32;;;2.45;;
30378;SDS011;17168;49.164;9.060;2022-10-17T16:48:16;8.63;;;2.53;;
30378;SDS011;17168;49.164;9.060;2022-10-17T16:50:48;10.20;;;2.95;;
30378;SDS011;17168;49.164;9.060;2022-10-17T16:53:21;5.60;;;2.47;;
30378;SDS011;17168;49.164;9.060;2022-10-17T16:58:31;5.40;;;2.50;;
30378;SDS011;17168;49.164;9.060;2022-10-17T17:01:04;16.03;;;2.63;;
30378;SDS011;17168;49.164;9.060;2022-10-17T17:03:38;5.97;;;2.72;;
30378;SDS011;17168;49.164;9.060;2022-10-17T17:06:13;9.30;;;3.05;;
30378;SDS011;17168;49.164;9.060;2022-10-17T17:08:47;14.65;;;3.28;;